sensor_id;sensor_type;location;lat;lon;timestamp;P1;durP1;ratioP1;P2;durP2;ratioP2
51915;SDS011;37942;53.218;6.548;2022-08-02T00:01:45;14.50;;;4.80;;
51915;SDS011;37942;53.218;6.548;2022-08-02T00:04:11;14.65;;;4.93;;
51915;SDS011;37942;53.218;6.548;2022-08-02T00:06:38;23.98;;;5.25;;
51915;SDS011;37942;53.218;6.548;2022-08-02T00:09:07;13.55;;;4.53;;
51915;SDS011;37942;53.218;6.548;2022-08-02T00:11:42;14.50;;;5.03;;
51915;SDS011;37942;53.218;6.548;2022-08-02T00:14:08;17.38;;;5.00;;
51915;SDS011;37942;53.218;6.548;2022-08-02T00:19:05;20.27;;;5.15;;
51915;SDS011;37942;53.218;6.548;2022-08-02T00:21:31;14.63;;;5.25;;
51915;SDS011;37942;53.218;6.548;2022-08-02T00:23:58;18.23;;;5.68;;
51915;SDS011;37942;53.218;6.548;2022-08-02T00:26:24;16.42;;;5.15;;
51915;SDS011;37942;53.218;6.548;2022-08-02T00:28:50;14.25;;;5.05;;
51915;SDS011;37942;53.218;6.548;2022-08-02T00:31:16;15.82;;;5.18;;
51915;SDS011;37942;53.218;6.548;2022-08-02T00:33:42;15.57;;;5.28;;
51915;SDS011;37942;53.218;6.548;2022-08-02T00:36:08;17.65;;;5.18;;
51915;SDS011;37942;53.218;6.548;2022-08-02T00:38:34;15.93;;;4.75;;
51915;SDS011;37942;53.218;6.548;2022-08-02T00:41:09;15.25;;;4.70;;
51915;SDS011;37942;53.218;6.548;2022-08-02T00:43:36;17.88;;;5.00;;
51915;SDS011;37942;53.218;6.548;2022-08-02T00:46:02;14.32;;;4.50;;
51915;SDS011;37942;53.218;6.548;2022-08-02T00:48:28;15.75;;;4.60;;
51915;SDS011;37942;53.218;6.548;2022-08-02T00:50:54;16.25;;;4.20;;
51915;SDS011;37942;53.218;6.548;2022-08-02T00:53:22;22.10;;;5.53;;
51915;SDS011;37942;53.218;6.548;2022-08-02T00:55:48;15.88;;;5.10;;
51915;SDS011;37942;53.218;6.548;2022-08-02T00:58:16;16.17;;;4.55;;
51915;SDS011;37942;53.218;6.548;2022-08-02T01:00:42;17.98;;;5.20;;
51915;SDS011;37942;53.218;6.548;2022-08-02T01:03:11;13.52;;;4.85;;
51915;SDS011;37942;53.218;6.548;2022-08-02T01:05:44;18.63;;;4.75;;
51915;SDS011;37942;53.218;6.548;2022-08-02T01:08:10;15.07;;;4.60;;
51915;SDS011;37942;53.218;6.548;2022-08-02T01:10:42;17.85;;;4.32;;
51915;SDS011;37942;53.218;6.548;2022-08-02T01:13:08;14.02;;;4.53;;
51915;SDS011;37942;53.218;6.548;2022-08-02T01:15:36;15.57;;;4.90;;
51915;SDS011;37942;53.218;6.548;2022-08-02T01:18:39;18.08;;;4.82;;
51915;SDS011;37942;53.218;6.548;2022-08-02T01:21:05;14.43;;;4.60;;
51915;SDS011;37942;53.218;6.548;2022-08-02T01:23:58;13.77;;;4.68;;
51915;SDS011;37942;53.218;6.548;2022-08-02T01:26:49;14.70;;;4.68;;
51915;SDS011;37942;53.218;6.548;2022-08-02T01:34:31;15.85;;;4.53;;
51915;SDS011;37942;53.218;6.548;2022-08-02T01:37:10;18.88;;;4.50;;
51915;SDS011;37942;53.218;6.548;2022-08-02T01:39:56;15.48;;;4.65;;
51915;SDS011;37942;53.218;6.548;2022-08-02T01:42:29;14.00;;;4.47;;
51915;SDS011;37942;53.218;6.548;2022-08-02T01:44:56;16.38;;;4.60;;
51915;SDS011;37942;53.218;6.548;2022-08-02T01:47:25;14.93;;;4.00;;
51915;SDS011;37942;53.218;6.548;2022-08-02T01:49:59;15.00;;;4.65;;
51915;SDS011;37942;53.218;6.548;2022-08-02T01:52:29;17.52;;;4.82;;
51915;SDS011;37942;53.218;6.548;2022-08-02T01:55:00;16.40;;;4.78;;
51915;SDS011;37942;53.218;6.548;2022-08-02T01:57:29;15.32;;;4.85;;
51915;SDS011;37942;53.218;6.548;2022-08-02T01:59:58;14.13;;;4.75;;
51915;SDS011;37942;53.218;6.548;2022-08-02T02:02:25;15.50;;;4.65;;
51915;SDS011;37942;53.218;6.548;2022-08-02T02:05:00;15.47;;;4.77;;
51915;SDS011;37942;53.218;6.548;2022-08-02T02:07:27;16.75;;;4.93;;
51915;SDS011;37942;53.218;6.548;2022-08-02T02:09:55;17.55;;;4.65;;
51915;SDS011;37942;53.218;6.548;2022-08-02T02:12:21;17.00;;;4.68;;
51915;SDS011;37942;53.218;6.548;2022-08-02T02:14:52;16.35;;;4.82;;
51915;SDS011;37942;53.218;6.548;2022-08-02T02:17:20;12.95;;;4.47;;
51915;SDS011;37942;53.218;6.548;2022-08-02T02:19:50;13.88;;;4.68;;
51915;SDS011;37942;53.218;6.548;2022-08-02T02:22:16;17.30;;;5.05;;
51915;SDS011;37942;53.218;6.548;2022-08-02T02:24:42;17.15;;;5.35;;
51915;SDS011;37942;53.218;6.548;2022-08-02T02:27:14;16.70;;;4.82;;
51915;SDS011;37942;53.218;6.548;2022-08-02T02:29:43;13.85;;;4.70;;
51915;SDS011;37942;53.218;6.548;2022-08-02T02:32:09;14.45;;;4.57;;
51915;SDS011;37942;53.218;6.548;2022-08-02T02:34:38;15.05;;;5.25;;
51915;SDS011;37942;53.218;6.548;2022-08-02T02:37:07;17.75;;;5.18;;
51915;SDS011;37942;53.218;6.548;2022-08-02T02:39:47;14.05;;;4.95;;
51915;SDS011;37942;53.218;6.548;2022-08-02T02:42:15;13.00;;;4.85;;
51915;SDS011;37942;53.218;6.548;2022-08-02T02:44:53;15.57;;;4.88;;
51915;SDS011;37942;53.218;6.548;2022-08-02T02:47:20;15.30;;;5.45;;
51915;SDS011;37942;53.218;6.548;2022-08-02T02:52:13;17.30;;;5.10;;
51915;SDS011;37942;53.218;6.548;2022-08-02T02:54:44;16.05;;;5.18;;
51915;SDS011;37942;53.218;6.548;2022-08-02T02:57:11;14.98;;;5.18;;
51915;SDS011;37942;53.218;6.548;2022-08-02T02:59:40;19.15;;;5.20;;
51915;SDS011;37942;53.218;6.548;2022-08-02T03:02:09;13.63;;;4.57;;
51915;SDS011;37942;53.218;6.548;2022-08-02T03:04:36;16.73;;;4.85;;
51915;SDS011;37942;53.218;6.548;2022-08-02T03:07:02;17.85;;;5.50;;
51915;SDS011;37942;53.218;6.548;2022-08-02T03:09:31;17.02;;;4.90;;
51915;SDS011;37942;53.218;6.548;2022-08-02T03:12:01;14.57;;;4.65;;
51915;SDS011;37942;53.218;6.548;2022-08-02T03:16:55;17.17;;;5.28;;
51915;SDS011;37942;53.218;6.548;2022-08-02T03:19:21;14.23;;;5.32;;
51915;SDS011;37942;53.218;6.548;2022-08-02T03:21:49;14.20;;;5.25;;
51915;SDS011;37942;53.218;6.548;2022-08-02T03:24:16;15.23;;;5.15;;
51915;SDS011;37942;53.218;6.548;2022-08-02T03:26:42;13.25;;;4.80;;
51915;SDS011;37942;53.218;6.548;2022-08-02T03:29:13;14.52;;;5.05;;
51915;SDS011;37942;53.218;6.548;2022-08-02T03:31:40;14.73;;;4.78;;
51915;SDS011;37942;53.218;6.548;2022-08-02T03:34:24;16.70;;;5.07;;
51915;SDS011;37942;53.218;6.548;2022-08-02T03:36:51;13.82;;;5.00;;
51915;SDS011;37942;53.218;6.548;2022-08-02T03:39:22;16.45;;;5.30;;
51915;SDS011;37942;53.218;6.548;2022-08-02T03:41:50;18.35;;;5.40;;
51915;SDS011;37942;53.218;6.548;2022-08-02T03:44:21;16.55;;;5.10;;
51915;SDS011;37942;53.218;6.548;2022-08-02T03:46:51;13.32;;;4.65;;
51915;SDS011;37942;53.218;6.548;2022-08-02T03:51:46;14.52;;;5.25;;
51915;SDS011;37942;53.218;6.548;2022-08-02T03:54:16;17.60;;;5.40;;
51915;SDS011;37942;53.218;6.548;2022-08-02T03:56:45;18.45;;;5.43;;
51915;SDS011;37942;53.218;6.548;2022-08-02T03:59:14;16.05;;;5.28;;
51915;SDS011;37942;53.218;6.548;2022-08-02T04:01:40;16.60;;;5.70;;
51915;SDS011;37942;53.218;6.548;2022-08-02T04:06:33;17.73;;;5.38;;
51915;SDS011;37942;53.218;6.548;2022-08-02T04:08:59;18.35;;;5.72;;
51915;SDS011;37942;53.218;6.548;2022-08-02T04:11:28;17.48;;;6.05;;
51915;SDS011;37942;53.218;6.548;2022-08-02T04:14:01;19.20;;;6.00;;
51915;SDS011;37942;53.218;6.548;2022-08-02T04:19:03;17.27;;;5.90;;
51915;SDS011;37942;53.218;6.548;2022-08-02T04:21:31;14.30;;;5.40;;
51915;SDS011;37942;53.218;6.548;2022-08-02T04:24:02;16.40;;;5.80;;
51915;SDS011;37942;53.218;6.548;2022-08-02T04:26:29;18.27;;;6.28;;
51915;SDS011;37942;53.218;6.548;2022-08-02T04:28:56;18.50;;;5.57;;
51915;SDS011;37942;53.218;6.548;2022-08-02T04:31:22;14.57;;;5.75;;
51915;SDS011;37942;53.218;6.548;2022-08-02T04:33:49;21.10;;;6.60;;
51915;SDS011;37942;53.218;6.548;2022-08-02T04:36:15;19.42;;;6.75;;
51915;SDS011;37942;53.218;6.548;2022-08-02T04:38:41;18.52;;;6.45;;
51915;SDS011;37942;53.218;6.548;2022-08-02T04:41:10;17.80;;;6.80;;
51915;SDS011;37942;53.218;6.548;2022-08-02T04:43:36;18.33;;;6.43;;
51915;SDS011;37942;53.218;6.548;2022-08-02T04:46:02;18.98;;;6.30;;
51915;SDS011;37942;53.218;6.548;2022-08-02T04:48:29;13.95;;;5.93;;
51915;SDS011;37942;53.218;6.548;2022-08-02T04:50:59;16.63;;;6.30;;
51915;SDS011;37942;53.218;6.548;2022-08-02T04:53:25;16.73;;;6.57;;
51915;SDS011;37942;53.218;6.548;2022-08-02T04:55:51;16.65;;;6.75;;
51915;SDS011;37942;53.218;6.548;2022-08-02T04:58:20;15.70;;;6.47;;
51915;SDS011;37942;53.218;6.548;2022-08-02T05:00:46;16.08;;;6.00;;
51915;SDS011;37942;53.218;6.548;2022-08-02T05:03:16;17.25;;;6.32;;
51915;SDS011;37942;53.218;6.548;2022-08-02T05:05:49;17.15;;;6.20;;
51915;SDS011;37942;53.218;6.548;2022-08-02T05:08:15;18.23;;;7.07;;
51915;SDS011;37942;53.218;6.548;2022-08-02T05:10:42;18.58;;;6.38;;
51915;SDS011;37942;53.218;6.548;2022-08-02T05:13:08;18.45;;;6.57;;
51915;SDS011;37942;53.218;6.548;2022-08-02T05:15:43;17.42;;;6.30;;
51915;SDS011;37942;53.218;6.548;2022-08-02T05:18:10;17.63;;;6.40;;
51915;SDS011;37942;53.218;6.548;2022-08-02T05:20:40;19.52;;;6.57;;
51915;SDS011;37942;53.218;6.548;2022-08-02T05:23:07;17.67;;;6.43;;
51915;SDS011;37942;53.218;6.548;2022-08-02T05:27:59;17.00;;;6.22;;
51915;SDS011;37942;53.218;6.548;2022-08-02T05:30:25;16.67;;;5.75;;
51915;SDS011;37942;53.218;6.548;2022-08-02T05:32:54;20.05;;;5.90;;
51915;SDS011;37942;53.218;6.548;2022-08-02T05:35:21;17.27;;;5.97;;
51915;SDS011;37942;53.218;6.548;2022-08-02T05:37:47;17.60;;;6.22;;
51915;SDS011;37942;53.218;6.548;2022-08-02T05:40:16;15.73;;;5.45;;
51915;SDS011;37942;53.218;6.548;2022-08-02T05:42:43;17.45;;;5.40;;
51915;SDS011;37942;53.218;6.548;2022-08-02T05:45:09;11.90;;;5.22;;
51915;SDS011;37942;53.218;6.548;2022-08-02T05:50:05;16.50;;;5.40;;
51915;SDS011;37942;53.218;6.548;2022-08-02T05:53:00;18.73;;;5.50;;
51915;SDS011;37942;53.218;6.548;2022-08-02T05:55:37;18.52;;;5.65;;
51915;SDS011;37942;53.218;6.548;2022-08-02T06:00:43;14.15;;;5.22;;
51915;SDS011;37942;53.218;6.548;2022-08-02T06:03:20;20.30;;;5.05;;
51915;SDS011;37942;53.218;6.548;2022-08-02T06:05:52;16.77;;;5.15;;
51915;SDS011;37942;53.218;6.548;2022-08-02T06:08:30;14.40;;;5.28;;
51915;SDS011;37942;53.218;6.548;2022-08-02T06:10:58;14.63;;;5.20;;
51915;SDS011;37942;53.218;6.548;2022-08-02T06:13:25;17.25;;;5.47;;
51915;SDS011;37942;53.218;6.548;2022-08-02T06:15:52;12.98;;;5.00;;
51915;SDS011;37942;53.218;6.548;2022-08-02T06:18:23;16.05;;;4.50;;
51915;SDS011;37942;53.218;6.548;2022-08-02T06:21:03;18.10;;;5.20;;
51915;SDS011;37942;53.218;6.548;2022-08-02T06:23:30;15.40;;;4.70;;
51915;SDS011;37942;53.218;6.548;2022-08-02T06:26:00;15.00;;;4.65;;
51915;SDS011;37942;53.218;6.548;2022-08-02T06:28:27;15.15;;;5.13;;
51915;SDS011;37942;53.218;6.548;2022-08-02T06:31:00;15.73;;;4.72;;
51915;SDS011;37942;53.218;6.548;2022-08-02T06:33:31;19.73;;;4.80;;
51915;SDS011;37942;53.218;6.548;2022-08-02T06:38:32;14.88;;;4.82;;
51915;SDS011;37942;53.218;6.548;2022-08-02T06:41:36;15.60;;;4.40;;
51915;SDS011;37942;53.218;6.548;2022-08-02T06:44:07;17.70;;;4.90;;
51915;SDS011;37942;53.218;6.548;2022-08-02T06:46:39;15.48;;;4.38;;
51915;SDS011;37942;53.218;6.548;2022-08-02T06:49:06;14.25;;;4.63;;
51915;SDS011;37942;53.218;6.548;2022-08-02T06:51:41;15.75;;;4.55;;
51915;SDS011;37942;53.218;6.548;2022-08-02T06:54:10;14.07;;;4.45;;
51915;SDS011;37942;53.218;6.548;2022-08-02T06:56:40;13.40;;;4.05;;
51915;SDS011;37942;53.218;6.548;2022-08-02T06:59:07;14.90;;;4.55;;
51915;SDS011;37942;53.218;6.548;2022-08-02T07:01:36;14.00;;;4.30;;
51915;SDS011;37942;53.218;6.548;2022-08-02T07:04:03;15.70;;;4.88;;
51915;SDS011;37942;53.218;6.548;2022-08-02T07:06:32;12.65;;;4.43;;
51915;SDS011;37942;53.218;6.548;2022-08-02T07:08:59;14.35;;;4.47;;
51915;SDS011;37942;53.218;6.548;2022-08-02T07:11:25;18.08;;;4.70;;
51915;SDS011;37942;53.218;6.548;2022-08-02T07:16:17;12.13;;;3.83;;
51915;SDS011;37942;53.218;6.548;2022-08-02T07:18:44;13.30;;;3.80;;
51915;SDS011;37942;53.218;6.548;2022-08-02T07:21:10;11.55;;;3.80;;
51915;SDS011;37942;53.218;6.548;2022-08-02T07:23:37;12.05;;;3.65;;
51915;SDS011;37942;53.218;6.548;2022-08-02T07:26:06;13.02;;;3.60;;
51915;SDS011;37942;53.218;6.548;2022-08-02T07:28:38;13.35;;;3.72;;
51915;SDS011;37942;53.218;6.548;2022-08-02T07:31:09;11.68;;;3.65;;
51915;SDS011;37942;53.218;6.548;2022-08-02T07:33:35;18.08;;;3.60;;
51915;SDS011;37942;53.218;6.548;2022-08-02T07:36:02;13.80;;;3.67;;
51915;SDS011;37942;53.218;6.548;2022-08-02T07:38:30;11.50;;;3.72;;
51915;SDS011;37942;53.218;6.548;2022-08-02T07:41:14;15.73;;;3.90;;
51915;SDS011;37942;53.218;6.548;2022-08-02T07:43:40;12.02;;;3.65;;
51915;SDS011;37942;53.218;6.548;2022-08-02T07:48:32;10.35;;;3.10;;
51915;SDS011;37942;53.218;6.548;2022-08-02T07:50:58;11.02;;;3.40;;
51915;SDS011;37942;53.218;6.548;2022-08-02T07:53:25;11.63;;;3.25;;
51915;SDS011;37942;53.218;6.548;2022-08-02T07:55:54;10.75;;;3.17;;
51915;SDS011;37942;53.218;6.548;2022-08-02T07:58:21;9.82;;;2.90;;
51915;SDS011;37942;53.218;6.548;2022-08-02T08:00:50;10.85;;;3.20;;
51915;SDS011;37942;53.218;6.548;2022-08-02T08:03:19;10.75;;;2.78;;
51915;SDS011;37942;53.218;6.548;2022-08-02T08:05:45;9.35;;;2.80;;
51915;SDS011;37942;53.218;6.548;2022-08-02T08:08:14;7.90;;;2.67;;
51915;SDS011;37942;53.218;6.548;2022-08-02T08:10:45;9.95;;;2.70;;
51915;SDS011;37942;53.218;6.548;2022-08-02T08:13:13;11.48;;;2.70;;
51915;SDS011;37942;53.218;6.548;2022-08-02T08:15:42;9.63;;;2.60;;
51915;SDS011;37942;53.218;6.548;2022-08-02T08:18:11;9.45;;;2.35;;
51915;SDS011;37942;53.218;6.548;2022-08-02T08:20:38;8.48;;;2.65;;
51915;SDS011;37942;53.218;6.548;2022-08-02T08:23:04;8.23;;;2.20;;
51915;SDS011;37942;53.218;6.548;2022-08-02T08:27:57;9.00;;;2.42;;
51915;SDS011;37942;53.218;6.548;2022-08-02T08:30:24;9.30;;;2.60;;
51915;SDS011;37942;53.218;6.548;2022-08-02T08:35:22;8.38;;;2.28;;
51915;SDS011;37942;53.218;6.548;2022-08-02T08:37:48;6.72;;;2.30;;
51915;SDS011;37942;53.218;6.548;2022-08-02T08:40:15;11.38;;;2.45;;
51915;SDS011;37942;53.218;6.548;2022-08-02T08:42:42;13.60;;;2.60;;
51915;SDS011;37942;53.218;6.548;2022-08-02T08:45:08;7.80;;;2.47;;
51915;SDS011;37942;53.218;6.548;2022-08-02T08:47:40;7.47;;;2.33;;
51915;SDS011;37942;53.218;6.548;2022-08-02T08:50:11;8.95;;;2.28;;
51915;SDS011;37942;53.218;6.548;2022-08-02T08:52:41;8.48;;;2.58;;
51915;SDS011;37942;53.218;6.548;2022-08-02T08:55:10;8.15;;;2.33;;
51915;SDS011;37942;53.218;6.548;2022-08-02T08:57:39;6.18;;;2.00;;
51915;SDS011;37942;53.218;6.548;2022-08-02T09:00:06;6.38;;;2.00;;
51915;SDS011;37942;53.218;6.548;2022-08-02T09:05:09;6.38;;;2.00;;
51915;SDS011;37942;53.218;6.548;2022-08-02T09:07:38;5.97;;;2.00;;
51915;SDS011;37942;53.218;6.548;2022-08-02T09:13:08;9.32;;;2.50;;
51915;SDS011;37942;53.218;6.548;2022-08-02T09:15:38;7.75;;;2.40;;
51915;SDS011;37942;53.218;6.548;2022-08-02T09:18:04;9.23;;;2.47;;
51915;SDS011;37942;53.218;6.548;2022-08-02T09:20:34;11.15;;;2.20;;
51915;SDS011;37942;53.218;6.548;2022-08-02T09:23:05;7.45;;;2.33;;
51915;SDS011;37942;53.218;6.548;2022-08-02T09:25:35;9.25;;;2.55;;
51915;SDS011;37942;53.218;6.548;2022-08-02T09:28:03;8.57;;;2.67;;
51915;SDS011;37942;53.218;6.548;2022-08-02T09:30:30;8.07;;;2.65;;
51915;SDS011;37942;53.218;6.548;2022-08-02T09:33:08;12.48;;;2.47;;
51915;SDS011;37942;53.218;6.548;2022-08-02T09:35:39;8.40;;;2.40;;
51915;SDS011;37942;53.218;6.548;2022-08-02T09:38:12;8.27;;;2.50;;
51915;SDS011;37942;53.218;6.548;2022-08-02T09:40:39;8.52;;;2.67;;
51915;SDS011;37942;53.218;6.548;2022-08-02T09:43:08;9.63;;;2.55;;
51915;SDS011;37942;53.218;6.548;2022-08-02T09:45:37;9.05;;;2.75;;
51915;SDS011;37942;53.218;6.548;2022-08-02T09:48:07;7.82;;;2.47;;
51915;SDS011;37942;53.218;6.548;2022-08-02T09:50:37;12.25;;;3.10;;
51915;SDS011;37942;53.218;6.548;2022-08-02T09:53:05;9.18;;;2.70;;
51915;SDS011;37942;53.218;6.548;2022-08-02T09:55:36;9.82;;;2.60;;
51915;SDS011;37942;53.218;6.548;2022-08-02T09:58:15;9.45;;;2.58;;
51915;SDS011;37942;53.218;6.548;2022-08-02T10:00:54;10.50;;;2.80;;
51915;SDS011;37942;53.218;6.548;2022-08-02T10:03:23;9.60;;;3.03;;
51915;SDS011;37942;53.218;6.548;2022-08-02T10:05:53;8.15;;;2.80;;
51915;SDS011;37942;53.218;6.548;2022-08-02T10:08:20;9.23;;;2.78;;
51915;SDS011;37942;53.218;6.548;2022-08-02T10:10:47;9.85;;;2.70;;
51915;SDS011;37942;53.218;6.548;2022-08-02T10:13:13;10.65;;;2.97;;
51915;SDS011;37942;53.218;6.548;2022-08-02T10:15:43;10.48;;;3.17;;
51915;SDS011;37942;53.218;6.548;2022-08-02T10:18:10;12.48;;;3.50;;
51915;SDS011;37942;53.218;6.548;2022-08-02T10:20:41;15.15;;;3.90;;
51915;SDS011;37942;53.218;6.548;2022-08-02T10:23:12;10.48;;;3.53;;
51915;SDS011;37942;53.218;6.548;2022-08-02T10:25:38;9.57;;;3.70;;
51915;SDS011;37942;53.218;6.548;2022-08-02T10:28:05;10.32;;;3.20;;
51915;SDS011;37942;53.218;6.548;2022-08-02T10:30:33;11.13;;;3.50;;
51915;SDS011;37942;53.218;6.548;2022-08-02T10:32:59;13.05;;;3.78;;
51915;SDS011;37942;53.218;6.548;2022-08-02T10:35:26;11.45;;;3.75;;
51915;SDS011;37942;53.218;6.548;2022-08-02T10:37:55;10.38;;;3.72;;
51915;SDS011;37942;53.218;6.548;2022-08-02T10:43:09;13.90;;;3.92;;
51915;SDS011;37942;53.218;6.548;2022-08-02T10:45:35;12.98;;;3.70;;
51915;SDS011;37942;53.218;6.548;2022-08-02T10:48:02;11.20;;;3.75;;
51915;SDS011;37942;53.218;6.548;2022-08-02T10:53:20;11.75;;;3.85;;
51915;SDS011;37942;53.218;6.548;2022-08-02T10:55:47;11.32;;;3.90;;
51915;SDS011;37942;53.218;6.548;2022-08-02T10:58:20;10.25;;;3.88;;
51915;SDS011;37942;53.218;6.548;2022-08-02T11:00:50;13.82;;;3.55;;
51915;SDS011;37942;53.218;6.548;2022-08-02T11:05:43;11.25;;;3.83;;
51915;SDS011;37942;53.218;6.548;2022-08-02T11:08:24;10.98;;;3.88;;
51915;SDS011;37942;53.218;6.548;2022-08-02T11:13:17;14.70;;;3.92;;
51915;SDS011;37942;53.218;6.548;2022-08-02T11:20:38;9.93;;;3.45;;
51915;SDS011;37942;53.218;6.548;2022-08-02T11:25:48;10.90;;;4.13;;
51915;SDS011;37942;53.218;6.548;2022-08-02T11:28:16;13.25;;;4.30;;
51915;SDS011;37942;53.218;6.548;2022-08-02T11:30:42;12.13;;;4.30;;
51915;SDS011;37942;53.218;6.548;2022-08-02T11:33:08;10.25;;;4.18;;
51915;SDS011;37942;53.218;6.548;2022-08-02T11:35:38;12.30;;;4.13;;
51915;SDS011;37942;53.218;6.548;2022-08-02T11:38:15;13.57;;;3.88;;
51915;SDS011;37942;53.218;6.548;2022-08-02T11:40:41;12.27;;;4.20;;
51915;SDS011;37942;53.218;6.548;2022-08-02T11:43:19;13.15;;;4.32;;
51915;SDS011;37942;53.218;6.548;2022-08-02T11:45:47;10.82;;;4.30;;
51915;SDS011;37942;53.218;6.548;2022-08-02T11:48:14;10.52;;;4.07;;
51915;SDS011;37942;53.218;6.548;2022-08-02T11:51:01;11.68;;;3.80;;
51915;SDS011;37942;53.218;6.548;2022-08-02T11:53:27;10.52;;;4.10;;
51915;SDS011;37942;53.218;6.548;2022-08-02T11:58:21;10.95;;;3.60;;
51915;SDS011;37942;53.218;6.548;2022-08-02T12:00:47;12.85;;;3.70;;
51915;SDS011;37942;53.218;6.548;2022-08-02T12:03:14;11.25;;;3.72;;
51915;SDS011;37942;53.218;6.548;2022-08-02T12:05:47;11.30;;;4.72;;
51915;SDS011;37942;53.218;6.548;2022-08-02T12:08:14;11.30;;;3.78;;
51915;SDS011;37942;53.218;6.548;2022-08-02T12:10:46;9.05;;;3.90;;
51915;SDS011;37942;53.218;6.548;2022-08-02T12:13:13;10.90;;;4.07;;
51915;SDS011;37942;53.218;6.548;2022-08-02T12:18:20;11.23;;;4.72;;
51915;SDS011;37942;53.218;6.548;2022-08-02T12:24:02;11.07;;;4.27;;
51915;SDS011;37942;53.218;6.548;2022-08-02T12:26:28;12.55;;;5.30;;
51915;SDS011;37942;53.218;6.548;2022-08-02T12:29:07;11.82;;;5.20;;
51915;SDS011;37942;53.218;6.548;2022-08-02T12:31:40;13.70;;;5.97;;
51915;SDS011;37942;53.218;6.548;2022-08-02T12:34:13;13.13;;;5.68;;
51915;SDS011;37942;53.218;6.548;2022-08-02T12:36:42;15.35;;;6.72;;
51915;SDS011;37942;53.218;6.548;2022-08-02T12:39:13;13.50;;;6.60;;
51915;SDS011;37942;53.218;6.548;2022-08-02T12:41:39;15.23;;;6.30;;
51915;SDS011;37942;53.218;6.548;2022-08-02T12:44:13;13.85;;;6.13;;
51915;SDS011;37942;53.218;6.548;2022-08-02T12:46:40;15.13;;;7.10;;
51915;SDS011;37942;53.218;6.548;2022-08-02T12:49:16;13.65;;;6.05;;
51915;SDS011;37942;53.218;6.548;2022-08-02T12:51:44;11.90;;;6.03;;
51915;SDS011;37942;53.218;6.548;2022-08-02T12:54:16;12.60;;;5.50;;
51915;SDS011;37942;53.218;6.548;2022-08-02T12:56:44;11.43;;;5.22;;
51915;SDS011;37942;53.218;6.548;2022-08-02T12:59:15;10.90;;;5.10;;
51915;SDS011;37942;53.218;6.548;2022-08-02T13:01:44;12.48;;;5.43;;
51915;SDS011;37942;53.218;6.548;2022-08-02T13:04:14;13.95;;;6.10;;
51915;SDS011;37942;53.218;6.548;2022-08-02T13:06:42;12.52;;;5.75;;
51915;SDS011;37942;53.218;6.548;2022-08-02T13:09:12;13.90;;;6.00;;
51915;SDS011;37942;53.218;6.548;2022-08-02T13:11:38;13.63;;;6.13;;
51915;SDS011;37942;53.218;6.548;2022-08-02T13:14:04;12.13;;;5.95;;
51915;SDS011;37942;53.218;6.548;2022-08-02T13:16:33;14.45;;;5.75;;
51915;SDS011;37942;53.218;6.548;2022-08-02T13:19:03;14.98;;;5.95;;
51915;SDS011;37942;53.218;6.548;2022-08-02T13:21:30;13.50;;;6.25;;
51915;SDS011;37942;53.218;6.548;2022-08-02T13:23:56;21.35;;;6.38;;
51915;SDS011;37942;53.218;6.548;2022-08-02T13:26:22;13.02;;;6.45;;
51915;SDS011;37942;53.218;6.548;2022-08-02T13:28:48;16.10;;;5.90;;
51915;SDS011;37942;53.218;6.548;2022-08-02T13:31:14;11.52;;;5.25;;
51915;SDS011;37942;53.218;6.548;2022-08-02T13:33:40;12.90;;;5.43;;
51915;SDS011;37942;53.218;6.548;2022-08-02T13:36:06;10.85;;;4.70;;
51915;SDS011;37942;53.218;6.548;2022-08-02T13:38:33;11.77;;;5.20;;
51915;SDS011;37942;53.218;6.548;2022-08-02T13:40:59;14.10;;;5.30;;
51915;SDS011;37942;53.218;6.548;2022-08-02T13:43:34;13.05;;;4.80;;
51915;SDS011;37942;53.218;6.548;2022-08-02T13:46:01;13.65;;;5.55;;
51915;SDS011;37942;53.218;6.548;2022-08-02T13:48:28;12.95;;;5.45;;
51915;SDS011;37942;53.218;6.548;2022-08-02T13:50:54;13.63;;;5.75;;
51915;SDS011;37942;53.218;6.548;2022-08-02T13:53:20;13.25;;;5.85;;
51915;SDS011;37942;53.218;6.548;2022-08-02T13:55:46;13.68;;;6.65;;
51915;SDS011;37942;53.218;6.548;2022-08-02T13:58:12;13.32;;;6.80;;
51915;SDS011;37942;53.218;6.548;2022-08-02T14:00:38;15.18;;;6.20;;
51915;SDS011;37942;53.218;6.548;2022-08-02T14:03:13;14.02;;;7.65;;
51915;SDS011;37942;53.218;6.548;2022-08-02T14:05:40;14.70;;;7.70;;
51915;SDS011;37942;53.218;6.548;2022-08-02T14:08:07;16.73;;;7.70;;
51915;SDS011;37942;53.218;6.548;2022-08-02T14:10:33;15.88;;;7.40;;
51915;SDS011;37942;53.218;6.548;2022-08-02T14:13:03;14.32;;;8.00;;
51915;SDS011;37942;53.218;6.548;2022-08-02T14:15:29;15.32;;;6.95;;
51915;SDS011;37942;53.218;6.548;2022-08-02T14:17:55;12.65;;;6.85;;
51915;SDS011;37942;53.218;6.548;2022-08-02T14:20:24;14.32;;;7.10;;
51915;SDS011;37942;53.218;6.548;2022-08-02T14:22:50;16.45;;;7.35;;
51915;SDS011;37942;53.218;6.548;2022-08-02T14:25:16;18.10;;;7.97;;
51915;SDS011;37942;53.218;6.548;2022-08-02T14:27:43;15.25;;;7.22;;
51915;SDS011;37942;53.218;6.548;2022-08-02T14:30:09;12.88;;;6.85;;
51915;SDS011;37942;53.218;6.548;2022-08-02T14:32:39;15.80;;;7.13;;
51915;SDS011;37942;53.218;6.548;2022-08-02T14:35:05;16.17;;;6.82;;
51915;SDS011;37942;53.218;6.548;2022-08-02T14:37:31;15.15;;;6.63;;
51915;SDS011;37942;53.218;6.548;2022-08-02T14:39:58;17.13;;;7.20;;
51915;SDS011;37942;53.218;6.548;2022-08-02T14:42:24;15.23;;;6.95;;
51915;SDS011;37942;53.218;6.548;2022-08-02T14:44:50;14.60;;;7.70;;
51915;SDS011;37942;53.218;6.548;2022-08-02T14:47:17;15.15;;;7.05;;
51915;SDS011;37942;53.218;6.548;2022-08-02T14:49:44;16.92;;;7.80;;
51915;SDS011;37942;53.218;6.548;2022-08-02T14:52:11;17.10;;;7.78;;
51915;SDS011;37942;53.218;6.548;2022-08-02T14:54:39;17.08;;;8.43;;
51915;SDS011;37942;53.218;6.548;2022-08-02T14:57:10;15.23;;;8.18;;
51915;SDS011;37942;53.218;6.548;2022-08-02T14:59:36;18.67;;;7.65;;
51915;SDS011;37942;53.218;6.548;2022-08-02T15:02:02;19.13;;;9.10;;
51915;SDS011;37942;53.218;6.548;2022-08-02T15:04:28;14.88;;;8.60;;
51915;SDS011;37942;53.218;6.548;2022-08-02T15:06:59;18.75;;;9.07;;
51915;SDS011;37942;53.218;6.548;2022-08-02T15:09:26;15.32;;;8.65;;
51915;SDS011;37942;53.218;6.548;2022-08-02T15:11:52;21.42;;;8.50;;
51915;SDS011;37942;53.218;6.548;2022-08-02T15:14:19;21.58;;;8.10;;
51915;SDS011;37942;53.218;6.548;2022-08-02T15:16:46;16.52;;;8.55;;
51915;SDS011;37942;53.218;6.548;2022-08-02T15:19:12;17.05;;;8.48;;
51915;SDS011;37942;53.218;6.548;2022-08-02T15:21:38;18.40;;;7.72;;
51915;SDS011;37942;53.218;6.548;2022-08-02T15:24:04;15.43;;;7.40;;
51915;SDS011;37942;53.218;6.548;2022-08-02T15:26:30;14.55;;;6.90;;
51915;SDS011;37942;53.218;6.548;2022-08-02T15:28:56;15.05;;;6.32;;
51915;SDS011;37942;53.218;6.548;2022-08-02T15:31:22;15.60;;;6.95;;
51915;SDS011;37942;53.218;6.548;2022-08-02T15:33:48;13.50;;;5.95;;
51915;SDS011;37942;53.218;6.548;2022-08-02T15:36:14;16.10;;;6.88;;
51915;SDS011;37942;53.218;6.548;2022-08-02T15:38:44;12.70;;;5.63;;
51915;SDS011;37942;53.218;6.548;2022-08-02T15:41:10;13.60;;;6.28;;
51915;SDS011;37942;53.218;6.548;2022-08-02T15:43:39;13.90;;;5.63;;
51915;SDS011;37942;53.218;6.548;2022-08-02T15:46:05;15.25;;;5.38;;
51915;SDS011;37942;53.218;6.548;2022-08-02T15:48:31;13.07;;;6.38;;
51915;SDS011;37942;53.218;6.548;2022-08-02T15:50:58;12.07;;;5.50;;
51915;SDS011;37942;53.218;6.548;2022-08-02T15:53:24;12.10;;;5.90;;
51915;SDS011;37942;53.218;6.548;2022-08-02T15:55:50;15.38;;;6.03;;
51915;SDS011;37942;53.218;6.548;2022-08-02T15:58:20;17.17;;;6.18;;